Daisenzanmaru — JD2321 — position and weather

sailwx.info

Track history (hours):
 
Tides and Currents Weather Stations Pressure Air Temp Water Temp Dewpoint Dewpoint Depression Visibility Wind Speed Wind Dir Waves Ship Positions

Daisenzanmaru

Last reported at 2017-Oct-05 09:07 UTC. Time now 2017-Oct-18 16:22 UTC.
Position N 34°59' E 139°43'.
Warning: this ship's position is 13 days out of date.

Length 72 m.

Type: Ship. MMSI: 431402064.

Date/timePositionNaut miles runAvg speedWind from/ knotsBaromVisibWave heightAir tempDewpointWater temp
2017-Oct-05 09:07N 34°59' E 139°43'211.4
2017-Oct-05 08:57N 35°01' E 139°44'510.7
2017-Oct-05 08:29N 35°06' E 139°45'611.1
2017-Oct-05 07:59N 35°11' E 139°46'710.8
2017-Oct-05 07:22N 35°18' E 139°45'710.6
2017-Oct-05 06:45N 35°24' E 139°43'2 0.1
2017-Oct-04 03:02N 35°25' E 139°45'112.6
2017-Oct-04 02:59N 35°25' E 139°44'4 6.0
2017-Oct-04 02:20N 35°23' E 139°40'0 0.0
2017-Oct-04 01:56N 35°23' E 139°40'0 0.0
2017-Oct-04 01:29N 35°23' E 139°40'0 0.5
2017-Oct-04 00:54N 35°23' E 139°39'1 1.9
2017-Oct-04 00:18N 35°23' E 139°38'0 0.0
2017-Oct-03 23:54N 35°23' E 139°38'0 0.0
2017-Oct-03 23:15N 35°23' E 139°38'0 1.4
2017-Oct-03 23:00N 35°23' E 139°38'1 1.2
2017-Oct-03 22:11N 35°23' E 139°40'0 0.0
2017-Oct-03 21:50N 35°23' E 139°40'0 0.0
2017-Oct-03 21:29N 35°23' E 139°40'0 0.0
2017-Oct-03 19:44N 35°23' E 139°40'0 0.0
2017-Oct-03 19:29N 35°23' E 139°40'0 0.0
2017-Oct-03 12:29N 35°23' E 139°40'0 0.1
2017-Oct-03 11:41N 35°23' E 139°40'0 0.0
2017-Oct-03 11:20N 35°23' E 139°40'0 0.0
2017-Oct-03 10:53N 35°23' E 139°40'0 0.0
2017-Oct-03 10:29N 35°23' E 139°40'3 5.6
2017-Oct-03 09:59N 35°22' E 139°43'511.1
2017-Oct-03 09:30N 35°17' E 139°45'611.0
2017-Oct-03 09:00N 35°11' E 139°47'712.3
2017-Oct-03 08:28N 35°05' E 139°45'  
Track history (hours):
 
Tides and Currents Weather Stations Pressure Air Temp Water Temp Dewpoint Dewpoint Depression Visibility Wind Speed Wind Dir Waves Ship Positions

Daisenzanmaru

Last reported at 2017-Oct-05 09:07 UTC. Time now 2017-Oct-18 16:22 UTC.
Position N 34°59' E 139°43'.
Warning: this ship's position is 13 days out of date.

Length 72 m.

Type: Ship. MMSI: 431402064.

Date/timePositionNaut miles runAvg speedWind from/ knotsBaromVisibWave heightAir tempDewpointWater temp
2017-Oct-05 09:07N 34°59' E 139°43'211.4
2017-Oct-05 08:57N 35°01' E 139°44'510.7
2017-Oct-05 08:29N 35°06' E 139°45'611.1
2017-Oct-05 07:59N 35°11' E 139°46'710.8
2017-Oct-05 07:22N 35°18' E 139°45'710.6
2017-Oct-05 06:45N 35°24' E 139°43'2 0.1
2017-Oct-04 03:02N 35°25' E 139°45'112.6
2017-Oct-04 02:59N 35°25' E 139°44'4 6.0
2017-Oct-04 02:20N 35°23' E 139°40'0 0.0
2017-Oct-04 01:56N 35°23' E 139°40'0 0.0
2017-Oct-04 01:29N 35°23' E 139°40'0 0.5
2017-Oct-04 00:54N 35°23' E 139°39'1 1.9
2017-Oct-04 00:18N 35°23' E 139°38'0 0.0
2017-Oct-03 23:54N 35°23' E 139°38'0 0.0
2017-Oct-03 23:15N 35°23' E 139°38'0 1.4
2017-Oct-03 23:00N 35°23' E 139°38'1 1.2
2017-Oct-03 22:11N 35°23' E 139°40'0 0.0
2017-Oct-03 21:50N 35°23' E 139°40'0 0.0
2017-Oct-03 21:29N 35°23' E 139°40'0 0.0
2017-Oct-03 19:44N 35°23' E 139°40'0 0.0
2017-Oct-03 19:29N 35°23' E 139°40'0 0.0
2017-Oct-03 12:29N 35°23' E 139°40'0 0.1
2017-Oct-03 11:41N 35°23' E 139°40'0 0.0
2017-Oct-03 11:20N 35°23' E 139°40'0 0.0
2017-Oct-03 10:53N 35°23' E 139°40'0 0.0
2017-Oct-03 10:29N 35°23' E 139°40'3 5.6
2017-Oct-03 09:59N 35°22' E 139°43'511.1
2017-Oct-03 09:30N 35°17' E 139°45'611.0
2017-Oct-03 09:00N 35°11' E 139°47'712.3
2017-Oct-03 08:28N 35°05' E 139°45'  

Dump ship's entire track history